Terminal Aerodrome Forecast
Issued by NWS

Home | Current Version | Previous Version | Text Only | Print | Product List | Glossary On
Versions: 1 2 3 4 5 6 7 8 9 10 11 12 13 14 15 16
000
FTUS45 KRIW 240000 AAA
TAFJAC
TAF AMD
KJAC 240022Z 2400/2424 21012G24KT P6SM VCSH SCT040 BKN060
      TEMPO 2400/2402 1 1/2SM -SN BKN014
     FM240400 18008KT P6SM SCT060
     FM241500 20015KT P6SM VCSH BKN060
     FM241800 22020G30KT P6SM VCSH BKN030 OVC050
      AMD LTD TO CLD VIS AND WIND=

USA.gov is the U.S. government's official web portal to all federal, state and local government web resources and services.